createdAt,value
2017-05-05T00:00:18.590Z,1011.98
2017-05-05T00:01:30.830Z,1011.95
2017-05-05T00:02:43.360Z,1011.97
2017-05-05T00:03:55.856Z,1011.98
2017-05-05T00:05:08.102Z,1011.96
2017-05-05T00:06:20.640Z,1011.97
2017-05-05T00:07:33.173Z,1011.96
2017-05-05T00:08:45.417Z,1011.95
2017-05-05T00:09:57.639Z,1011.94
2017-05-05T00:11:10.180Z,1011.95
2017-05-05T00:12:22.431Z,1011.94
2017-05-05T00:13:34.954Z,1011.98
2017-05-05T00:14:47.473Z,1012.01
2017-05-05T00:16:00.019Z,1011.99
2017-05-05T00:17:12.260Z,1011.98
2017-05-05T00:18:24.789Z,1011.97
2017-05-05T00:19:37.023Z,1011.93
2017-05-05T00:20:49.549Z,1011.87
2017-05-05T00:22:01.473Z,1011.91
2017-05-05T00:23:13.694Z,1011.89
2017-05-05T00:24:26.242Z,1011.91
2017-05-05T00:25:38.762Z,1011.91
2017-05-05T00:26:51.254Z,1011.97
2017-05-05T00:28:03.803Z,1011.91
2017-05-05T00:29:16.347Z,1011.9
2017-05-05T00:30:28.890Z,1011.91
2017-05-05T00:31:41.111Z,1011.92
2017-05-05T00:32:53.633Z,1011.89
2017-05-05T00:34:06.180Z,1011.87
2017-05-05T00:35:18.401Z,1011.93
2017-05-05T00:36:30.945Z,1011.9
2017-05-05T00:37:43.462Z,1011.91
2017-05-05T00:38:55.720Z,1011.94
2017-05-05T00:40:08.264Z,1011.92
2017-05-05T00:41:20.500Z,1011.88
2017-05-05T00:42:33.029Z,1011.86
2017-05-05T00:43:45.538Z,1011.9
2017-05-05T00:44:58.045Z,1011.87
2017-05-05T00:46:10.266Z,1011.86
2017-05-05T00:47:22.805Z,1011.88
2017-05-05T00:48:35.037Z,1011.88
2017-05-05T00:49:47.576Z,1011.89
2017-05-05T00:51:00.425Z,1011.84
2017-05-05T00:52:12.959Z,1011.85
2017-05-05T00:53:25.167Z,1011.85
2017-05-05T00:54:37.388Z,1011.83
2017-05-05T00:55:49.651Z,1011.85
2017-05-05T00:57:02.172Z,1011.78
2017-05-05T00:58:14.400Z,1011.79
2017-05-05T00:59:26.647Z,1011.75
2017-05-05T01:00:38.592Z,1011.75
2017-05-05T01:01:50.815Z,1011.77
2017-05-05T01:03:03.359Z,1011.73
2017-05-05T01:04:15.576Z,1011.76
2017-05-05T01:05:28.097Z,1011.7
2017-05-05T01:06:40.611Z,1011.73
2017-05-05T01:07:53.131Z,1011.75
2017-05-05T01:09:05.663Z,1011.7
2017-05-05T01:10:18.182Z,1011.7
2017-05-05T01:11:30.707Z,1011.74
2017-05-05T01:12:43.547Z,1011.73
2017-05-05T01:13:56.072Z,1011.7
2017-05-05T01:15:08.317Z,1011.71
2017-05-05T01:16:20.565Z,1011.74
2017-05-05T01:17:33.109Z,1011.73
2017-05-05T01:18:45.633Z,1011.74
2017-05-05T01:19:57.851Z,1011.73
2017-05-05T01:21:10.094Z,1011.73
2017-05-05T01:22:22.615Z,1011.72
2017-05-05T01:23:35.114Z,1011.75
2017-05-05T01:24:47.637Z,1011.72
2017-05-05T01:26:00.177Z,1011.73
2017-05-05T01:27:12.416Z,1011.75
2017-05-05T01:28:24.947Z,1011.77
2017-05-05T01:29:37.487Z,1011.77
2017-05-05T01:30:50.020Z,1011.78
2017-05-05T01:32:02.234Z,1011.76
2017-05-05T01:33:14.753Z,1011.75
2017-05-05T01:34:27.283Z,1011.79
2017-05-05T01:35:39.775Z,1011.86
2017-05-05T01:36:52.294Z,1011.81
2017-05-05T01:38:04.845Z,1011.78
2017-05-05T01:39:17.338Z,1011.8
2017-05-05T01:40:29.900Z,1011.82
2017-05-05T01:41:42.452Z,1011.8
2017-05-05T01:42:54.688Z,1011.8
2017-05-05T01:44:07.221Z,1011.81
2017-05-05T01:45:19.454Z,1011.81
2017-05-05T01:46:31.686Z,1011.8
2017-05-05T01:47:44.232Z,1011.85
2017-05-05T01:48:56.778Z,1011.88
2017-05-05T01:50:09.032Z,1011.85
2017-05-05T01:51:21.567Z,1011.84
2017-05-05T01:52:34.111Z,1011.85
2017-05-05T01:53:46.676Z,1011.87
2017-05-05T01:54:59.207Z,1011.78
2017-05-05T01:56:11.754Z,1011.83
2017-05-05T01:57:24.025Z,1011.85
2017-05-05T01:58:36.571Z,1011.82
2017-05-05T01:59:49.114Z,1011.82
2017-05-05T02:01:01.034Z,1011.86
2017-05-05T02:02:12.974Z,1011.86
2017-05-05T02:03:25.204Z,1011.82
2017-05-05T02:04:37.397Z,1011.8
2017-05-05T02:05:49.888Z,1011.84
2017-05-05T02:07:01.832Z,1011.82
2017-05-05T02:08:14.340Z,1011.81
2017-05-05T02:09:26.880Z,1011.79
2017-05-05T02:10:39.426Z,1011.83
2017-05-05T02:11:51.952Z,1011.84
2017-05-05T02:13:03.893Z,1011.85
2017-05-05T02:14:16.443Z,1011.85
2017-05-05T02:15:28.986Z,1011.83
2017-05-05T02:16:41.513Z,1011.84
2017-05-05T02:17:53.744Z,1011.86
2017-05-05T02:19:06.272Z,1011.9
2017-05-05T02:20:18.522Z,1011.85
2017-05-05T02:21:31.061Z,1011.88
2017-05-05T02:22:43.614Z,1011.88
2017-05-05T02:23:56.156Z,1011.87
2017-05-05T02:25:08.398Z,1011.91
2017-05-05T02:26:20.923Z,1011.89
2017-05-05T02:27:33.448Z,1011.89
2017-05-05T02:28:45.665Z,1011.9
2017-05-05T02:29:58.215Z,1011.93
2017-05-05T02:31:10.436Z,1011.94
2017-05-05T02:32:22.674Z,1011.98
2017-05-05T02:33:35.223Z,1011.99
2017-05-05T02:34:47.723Z,1011.98
2017-05-05T02:35:59.643Z,1011.99
2017-05-05T02:37:11.887Z,1012.01
2017-05-05T02:38:24.135Z,1011.96
2017-05-05T02:39:36.357Z,1011.95
2017-05-05T02:40:48.899Z,1011.92
2017-05-05T02:42:01.427Z,1011.9
2017-05-05T02:43:13.358Z,1011.91
2017-05-05T02:44:25.942Z,1011.93
2017-05-05T02:45:38.486Z,1011.9
2017-05-05T02:46:50.403Z,1011.91
2017-05-05T02:48:02.949Z,1011.88
2017-05-05T02:49:15.174Z,1011.93
2017-05-05T02:50:27.720Z,1011.93
2017-05-05T02:51:40.280Z,1011.91
2017-05-05T02:52:52.833Z,1011.89
2017-05-05T02:54:05.034Z,1011.87
2017-05-05T02:55:17.575Z,1011.85
2017-05-05T02:56:30.113Z,1011.81
2017-05-05T02:57:42.617Z,1011.81
2017-05-05T02:58:55.166Z,1011.82
2017-05-05T03:00:07.736Z,1011.79
2017-05-05T03:01:20.229Z,1011.83
2017-05-05T03:02:32.752Z,1011.83
2017-05-05T03:03:45.013Z,1011.89
2017-05-05T03:04:57.547Z,1011.87
2017-05-05T03:06:10.364Z,1011.89
2017-05-05T03:07:22.879Z,1011.94
2017-05-05T03:08:35.410Z,1011.92
2017-05-05T03:09:47.951Z,1011.92
2017-05-05T03:11:00.476Z,1011.97
2017-05-05T03:12:12.385Z,1011.94
2017-05-05T03:13:24.621Z,1011.97
2017-05-05T03:14:37.156Z,1011.95
2017-05-05T03:15:49.708Z,1011.98
2017-05-05T03:17:02.226Z,1011.94
2017-05-05T03:18:14.448Z,1012.01
2017-05-05T03:19:26.669Z,1012
2017-05-05T03:20:39.207Z,1011.99
2017-05-05T03:21:51.710Z,1011.97
2017-05-05T03:23:03.935Z,1012.03
2017-05-05T03:24:16.155Z,1012.01
2017-05-05T03:25:28.702Z,1012.01
2017-05-05T03:26:41.247Z,1012.06
2017-05-05T03:27:53.789Z,1012.05
2017-05-05T03:29:06.338Z,1012.08
2017-05-05T03:30:18.584Z,1012.13
2017-05-05T03:31:31.105Z,1012.16
2017-05-05T03:32:43.374Z,1012.16
2017-05-05T03:33:55.911Z,1012.16
2017-05-05T03:35:08.122Z,1012.12
2017-05-05T03:36:20.339Z,1012.08
2017-05-05T03:37:32.886Z,1012.05
2017-05-05T03:38:45.444Z,1012.04
2017-05-05T03:39:57.677Z,1012.06
2017-05-05T03:41:09.616Z,1012.02
2017-05-05T03:42:22.119Z,1012.06
2017-05-05T03:43:34.689Z,1012.08
2017-05-05T03:44:47.250Z,1012.15
2017-05-05T03:45:59.486Z,1012.22
2017-05-05T03:47:12.024Z,1012.25
2017-05-05T03:48:24.569Z,1012.26
2017-05-05T03:49:36.818Z,1012.3
2017-05-05T03:50:49.341Z,1012.26
2017-05-05T03:52:01.864Z,1012.27
2017-05-05T03:53:14.079Z,1012.24
2017-05-05T03:54:26.618Z,1012.18
2017-05-05T03:55:39.416Z,1012.17
2017-05-05T03:56:51.951Z,1012.19
2017-05-05T03:58:04.487Z,1012.18
2017-05-05T03:59:17.012Z,1012.21
2017-05-05T04:00:29.554Z,1012.17
2017-05-05T04:01:42.084Z,1012.17
2017-05-05T04:02:54.595Z,1012.18
2017-05-05T04:04:07.121Z,1012.23
2017-05-05T04:05:19.686Z,1012.19
2017-05-05T04:06:31.901Z,1012.18
2017-05-05T04:07:44.125Z,1012.18
2017-05-05T04:08:56.651Z,1012.16
2017-05-05T04:10:09.197Z,1012.16
2017-05-05T04:11:21.697Z,1012.14
2017-05-05T04:12:34.242Z,1012.12
2017-05-05T04:13:46.488Z,1012.14
2017-05-05T04:14:59.006Z,1012.19
2017-05-05T04:16:11.526Z,1012.17
2017-05-05T04:17:24.074Z,1012.16
2017-05-05T04:18:36.293Z,1012.19
2017-05-05T04:19:48.843Z,1012.19
2017-05-05T04:21:01.388Z,1012.22
2017-05-05T04:22:13.925Z,1012.29
2017-05-05T04:23:26.188Z,1012.27
2017-05-05T04:24:38.726Z,1012.26
2017-05-05T04:25:51.286Z,1012.29
2017-05-05T04:27:03.831Z,1012.29
2017-05-05T04:28:16.614Z,1012.29
2017-05-05T04:29:29.135Z,1012.29
2017-05-05T04:30:41.694Z,1012.26
2017-05-05T04:31:54.232Z,1012.28
2017-05-05T04:33:06.744Z,1012.27
2017-05-05T04:34:19.292Z,1012.32
2017-05-05T04:35:31.510Z,1012.34
2017-05-05T04:36:44.023Z,1012.36
2017-05-05T04:37:56.257Z,1012.38
2017-05-05T04:39:08.826Z,1012.36
2017-05-05T04:40:21.070Z,1012.37
2017-05-05T04:41:33.594Z,1012.36
2017-05-05T04:42:45.851Z,1012.38
2017-05-05T04:43:58.377Z,1012.42
2017-05-05T04:45:10.599Z,1012.43
2017-05-05T04:46:23.127Z,1012.48
2017-05-05T04:47:35.673Z,1012.48
2017-05-05T04:48:48.215Z,1012.5
2017-05-05T04:50:00.736Z,1012.45
2017-05-05T04:51:13.235Z,1012.49
2017-05-05T04:52:25.481Z,1012.47
2017-05-05T04:53:38.024Z,1012.43
2017-05-05T04:54:50.549Z,1012.45
2017-05-05T04:56:02.790Z,1012.44
2017-05-05T04:57:15.315Z,1012.47
2017-05-05T04:58:27.843Z,1012.48
2017-05-05T04:59:40.371Z,1012.47
2017-05-05T05:00:52.905Z,1012.53
2017-05-05T05:02:05.421Z,1012.54
2017-05-05T05:03:17.633Z,1012.57
2017-05-05T05:04:30.188Z,1012.55
2017-05-05T05:05:42.949Z,1012.55
2017-05-05T05:06:55.480Z,1012.53
2017-05-05T05:08:07.729Z,1012.52
2017-05-05T05:09:19.974Z,1012.53
2017-05-05T05:10:32.242Z,1012.57
2017-05-05T05:11:44.742Z,1012.58
2017-05-05T05:12:57.304Z,1012.57
2017-05-05T05:14:09.854Z,1012.56
2017-05-05T05:15:22.078Z,1012.57
2017-05-05T05:16:34.621Z,1012.5
2017-05-05T05:17:47.171Z,1012.57
2017-05-05T05:18:59.688Z,1012.56
2017-05-05T05:20:12.217Z,1012.51
2017-05-05T05:21:24.759Z,1012.55
2017-05-05T05:22:37.601Z,1012.57
2017-05-05T05:23:50.150Z,1012.6
2017-05-05T05:25:02.702Z,1012.64
2017-05-05T05:26:15.242Z,1012.67
2017-05-05T05:27:27.459Z,1012.68
2017-05-05T05:28:39.985Z,1012.68
2017-05-05T05:29:52.530Z,1012.72
2017-05-05T05:31:05.052Z,1012.73
2017-05-05T05:32:17.269Z,1012.7
2017-05-05T05:33:29.788Z,1012.72
2017-05-05T05:34:42.331Z,1012.73
2017-05-05T05:35:54.880Z,1012.73
2017-05-05T05:37:07.430Z,1012.75
2017-05-05T05:38:19.675Z,1012.74
2017-05-05T05:39:32.220Z,1012.73
2017-05-05T05:40:44.760Z,1012.77
2017-05-05T05:41:57.287Z,1012.74
2017-05-05T05:43:09.813Z,1012.74
2017-05-05T05:44:22.602Z,1012.74
2017-05-05T05:45:35.123Z,1012.7
2017-05-05T05:46:47.647Z,1012.69
2017-05-05T05:47:59.871Z,1012.67
2017-05-05T05:49:11.808Z,1012.7
2017-05-05T05:50:24.050Z,1012.71
2017-05-05T05:51:36.582Z,1012.71
2017-05-05T05:52:49.123Z,1012.74
2017-05-05T05:54:01.644Z,1012.75
2017-05-05T05:55:14.185Z,1012.75
2017-05-05T05:56:26.415Z,1012.76
2017-05-05T05:57:38.935Z,1012.73
2017-05-05T05:58:51.483Z,1012.81
2017-05-05T06:00:04.276Z,1012.85
2017-05-05T06:01:15.571Z,1012.84
2017-05-05T06:02:28.067Z,1012.85
2017-05-05T06:03:40.605Z,1012.87
2017-05-05T06:04:52.807Z,1012.86
2017-05-05T06:06:05.028Z,1012.83
2017-05-05T06:07:17.279Z,1012.86
2017-05-05T06:08:29.814Z,1012.86
2017-05-05T06:09:42.019Z,1012.87
2017-05-05T06:10:54.566Z,1012.88
2017-05-05T06:12:07.112Z,1012.85
2017-05-05T06:13:19.354Z,1012.91
2017-05-05T06:14:31.576Z,1012.83
2017-05-05T06:15:44.096Z,1012.89
2017-05-05T06:16:56.321Z,1012.83
2017-05-05T06:18:08.590Z,1012.85
2017-05-05T06:19:21.139Z,1012.78
2017-05-05T06:20:33.680Z,1012.81
2017-05-05T06:21:46.477Z,1012.83
2017-05-05T06:22:58.697Z,1012.84
2017-05-05T06:24:11.210Z,1012.83
2017-05-05T06:25:23.431Z,1012.81
2017-05-05T06:26:35.659Z,1012.84
2017-05-05T06:27:48.187Z,1012.79
2017-05-05T06:29:00.750Z,1012.83
2017-05-05T06:30:13.288Z,1012.84
2017-05-05T06:31:25.495Z,1012.84
2017-05-05T06:32:38.006Z,1012.82
2017-05-05T06:33:50.537Z,1012.84
2017-05-05T06:35:03.106Z,1012.85
2017-05-05T06:36:15.356Z,1012.88
2017-05-05T06:37:27.600Z,1012.83
2017-05-05T06:38:39.823Z,1012.84
2017-05-05T06:39:52.365Z,1012.86
2017-05-05T06:41:04.885Z,1012.81
2017-05-05T06:42:17.083Z,1012.85
2017-05-05T06:43:29.635Z,1012.8
2017-05-05T06:44:41.869Z,1012.83
2017-05-05T06:45:54.394Z,1012.87
2017-05-05T06:47:06.619Z,1012.91
2017-05-05T06:48:18.535Z,1012.88
2017-05-05T06:49:31.057Z,1012.91
2017-05-05T06:50:43.277Z,1012.89
2017-05-05T06:51:55.792Z,1012.9
2017-05-05T06:53:07.419Z,1012.93
2017-05-05T06:54:19.661Z,1012.89
2017-05-05T06:55:32.185Z,1012.93
2017-05-05T06:56:44.708Z,1012.88
2017-05-05T06:57:57.228Z,1012.94
2017-05-05T06:59:09.777Z,1012.93
2017-05-05T07:00:22.561Z,1012.91
2017-05-05T07:01:34.791Z,1012.91
2017-05-05T07:02:47.287Z,1012.94
2017-05-05T07:03:59.790Z,1012.98
2017-05-05T07:05:12.028Z,1012.96
2017-05-05T07:06:24.267Z,1013.01
2017-05-05T07:07:36.791Z,1013
2017-05-05T07:08:49.346Z,1013
2017-05-05T07:10:01.596Z,1013.03
2017-05-05T07:11:13.836Z,1012.99
2017-05-05T07:12:26.384Z,1013.01
2017-05-05T07:13:38.620Z,1013
2017-05-05T07:14:51.170Z,1013.02
2017-05-05T07:16:03.396Z,1013
2017-05-05T07:17:15.617Z,1013.05
2017-05-05T07:18:28.163Z,1013.08
2017-05-05T07:19:40.707Z,1013.08
2017-05-05T07:20:53.251Z,1013.07
2017-05-05T07:22:05.772Z,1013.04
2017-05-05T07:23:18.018Z,1013.06
2017-05-05T07:24:29.934Z,1013.05
2017-05-05T07:25:42.466Z,1013.08
2017-05-05T07:26:54.979Z,1013.11
2017-05-05T07:28:06.929Z,1013.1
2017-05-05T07:29:19.479Z,1013.13
2017-05-05T07:30:31.420Z,1013.15
2017-05-05T07:31:43.314Z,1013.16
2017-05-05T07:32:55.864Z,1013.15
2017-05-05T07:34:08.110Z,1013.16
2017-05-05T07:35:20.356Z,1013.2
2017-05-05T07:36:32.618Z,1013.21
2017-05-05T07:37:45.089Z,1013.14
2017-05-05T07:38:57.608Z,1013.19
2017-05-05T07:40:09.835Z,1013.17
2017-05-05T07:41:22.077Z,1013.2
2017-05-05T07:42:34.627Z,1013.2
2017-05-05T07:43:47.150Z,1013.19
2017-05-05T07:44:59.396Z,1013.2
2017-05-05T07:46:11.665Z,1013.23
2017-05-05T07:47:24.194Z,1013.23
2017-05-05T07:48:36.712Z,1013.2
2017-05-05T07:49:49.244Z,1013.25
2017-05-05T07:51:01.778Z,1013.27
2017-05-05T07:52:14.324Z,1013.23
2017-05-05T07:53:26.258Z,1013.25
2017-05-05T07:54:38.791Z,1013.23
2017-05-05T07:55:51.352Z,1013.31
2017-05-05T07:57:03.609Z,1013.3
2017-05-05T07:58:16.127Z,1013.29
2017-05-05T07:59:28.652Z,1013.33
2017-05-05T08:00:40.897Z,1013.34
2017-05-05T08:01:53.414Z,1013.31
2017-05-05T08:03:05.657Z,1013.36
2017-05-05T08:04:18.181Z,1013.34
2017-05-05T08:05:30.420Z,1013.35
2017-05-05T08:06:42.657Z,1013.33
2017-05-05T08:07:55.211Z,1013.33
2017-05-05T08:09:07.743Z,1013.33
2017-05-05T08:10:19.975Z,1013.36
2017-05-05T08:11:32.496Z,1013.34
2017-05-05T08:12:45.021Z,1013.36
2017-05-05T08:13:57.271Z,1013.37
2017-05-05T08:15:09.492Z,1013.34
2017-05-05T08:16:21.990Z,1013.37
2017-05-05T08:17:34.208Z,1013.36
2017-05-05T08:18:46.426Z,1013.35
2017-05-05T08:19:58.667Z,1013.39
2017-05-05T08:21:11.199Z,1013.38
2017-05-05T08:22:23.459Z,1013.31
2017-05-05T08:23:35.966Z,1013.32
2017-05-05T08:24:48.218Z,1013.36
2017-05-05T08:26:00.737Z,1013.34
2017-05-05T08:27:12.680Z,1013.36
2017-05-05T08:28:24.601Z,1013.35
2017-05-05T08:29:37.120Z,1013.36
2017-05-05T08:30:49.647Z,1013.35
2017-05-05T08:32:02.186Z,1013.37
2017-05-05T08:33:14.416Z,1013.41
2017-05-05T08:34:26.955Z,1013.5
2017-05-05T08:35:39.529Z,1013.47
2017-05-05T08:36:52.070Z,1013.48
2017-05-05T08:38:03.990Z,1013.53
2017-05-05T08:39:16.238Z,1013.57
2017-05-05T08:40:28.481Z,1013.6
2017-05-05T08:41:41.002Z,1013.53
2017-05-05T08:42:53.551Z,1013.48
2017-05-05T08:44:05.796Z,1013.52
2017-05-05T08:45:18.331Z,1013.52
2017-05-05T08:46:30.535Z,1013.52
2017-05-05T08:47:43.061Z,1013.55
2017-05-05T08:48:55.601Z,1013.55
2017-05-05T08:50:07.833Z,1013.51
2017-05-05T08:51:20.073Z,1013.55
2017-05-05T08:52:32.314Z,1013.56
2017-05-05T08:53:44.541Z,1013.52
2017-05-05T08:54:56.806Z,1013.5
2017-05-05T08:56:09.328Z,1013.52
2017-05-05T08:57:21.552Z,1013.57
2017-05-05T08:58:34.097Z,1013.58
2017-05-05T08:59:46.658Z,1013.58
2017-05-05T09:00:59.182Z,1013.63
2017-05-05T09:02:11.450Z,1013.65
2017-05-05T09:03:23.981Z,1013.65
2017-05-05T09:04:36.224Z,1013.67
2017-05-05T09:05:48.766Z,1013.65
2017-05-05T09:07:01.291Z,1013.65
2017-05-05T09:08:13.532Z,1013.69
2017-05-05T09:09:25.753Z,1013.7
2017-05-05T09:10:38.011Z,1013.66
2017-05-05T09:11:50.550Z,1013.62
2017-05-05T09:13:03.099Z,1013.64
2017-05-05T09:14:15.334Z,1013.63
2017-05-05T09:15:27.838Z,1013.63
2017-05-05T09:16:39.758Z,1013.63
2017-05-05T09:17:52.282Z,1013.66
2017-05-05T09:19:04.833Z,1013.63
2017-05-05T09:20:17.063Z,1013.7
2017-05-05T09:21:29.570Z,1013.71
2017-05-05T09:22:41.817Z,1013.7
2017-05-05T09:23:54.390Z,1013.71
2017-05-05T09:25:06.933Z,1013.7
2017-05-05T09:26:19.506Z,1013.72
2017-05-05T09:27:32.039Z,1013.72
2017-05-05T09:28:44.260Z,1013.74
2017-05-05T09:29:56.770Z,1013.71
2017-05-05T09:31:09.037Z,1013.7
2017-05-05T09:32:21.575Z,1013.7
2017-05-05T09:33:34.104Z,1013.73
2017-05-05T09:34:46.325Z,1013.72
2017-05-05T09:35:57.948Z,1013.74
2017-05-05T09:37:10.494Z,1013.74
2017-05-05T09:38:22.752Z,1013.78
2017-05-05T09:39:35.284Z,1013.74
2017-05-05T09:40:47.822Z,1013.77
2017-05-05T09:42:00.325Z,1013.77
2017-05-05T09:43:12.868Z,1013.74
2017-05-05T09:44:24.807Z,1013.81
2017-05-05T09:45:37.014Z,1013.85
2017-05-05T09:46:49.549Z,1013.89
2017-05-05T09:48:02.084Z,1013.84
2017-05-05T09:49:14.644Z,1013.86
2017-05-05T09:50:27.170Z,1013.89
2017-05-05T09:51:39.711Z,1013.86
2017-05-05T09:52:52.237Z,1013.92
2017-05-05T09:54:04.498Z,1013.93
2017-05-05T09:55:17.028Z,1013.94
2017-05-05T09:56:29.566Z,1014.01
2017-05-05T09:57:42.094Z,1014.03
2017-05-05T09:58:54.636Z,1014.04
2017-05-05T10:00:07.188Z,1014.07
2017-05-05T10:01:19.099Z,1014.08
2017-05-05T10:02:31.027Z,1014.11
2017-05-05T10:03:43.574Z,1014.09
2017-05-05T10:04:56.113Z,1014.09
2017-05-05T10:06:08.658Z,1014.11
2017-05-05T10:07:21.140Z,1014.16
2017-05-05T10:08:33.387Z,1014.12
2017-05-05T10:09:45.909Z,1014.12
2017-05-05T10:10:58.444Z,1014.12
2017-05-05T10:12:10.662Z,1014.13
2017-05-05T10:13:22.867Z,1014.1
2017-05-05T10:14:35.390Z,1014.08
2017-05-05T10:15:47.912Z,1014.15
2017-05-05T10:17:00.454Z,1014.18
2017-05-05T10:18:12.974Z,1014.27
2017-05-05T10:19:24.872Z,1014.28
2017-05-05T10:20:37.414Z,1014.25
2017-05-05T10:21:50.037Z,1014.29
2017-05-05T10:23:02.563Z,1014.22
2017-05-05T10:24:14.504Z,1014.16
2017-05-05T10:25:27.026Z,1014.11
2017-05-05T10:26:39.271Z,1014.11
2017-05-05T10:27:51.821Z,1014.11
2017-05-05T10:29:04.341Z,1014.13
2017-05-05T10:30:16.578Z,1014.14
2017-05-05T10:31:28.808Z,1014.16
2017-05-05T10:32:41.354Z,1014.14
2017-05-05T10:33:53.898Z,1014.15
2017-05-05T10:35:06.435Z,1014.13
2017-05-05T10:36:18.973Z,1014.17
2017-05-05T10:37:31.205Z,1014.16
2017-05-05T10:38:43.431Z,1014.13
2017-05-05T10:39:55.681Z,1014.11
2017-05-05T10:41:07.921Z,1014.15
2017-05-05T10:42:19.876Z,1014.15
2017-05-05T10:43:32.092Z,1014.1
2017-05-05T10:44:44.656Z,1014.13
2017-05-05T10:45:56.881Z,1014.19
2017-05-05T10:47:09.113Z,1014.2
2017-05-05T10:48:21.623Z,1014.18
2017-05-05T10:49:34.173Z,1014.17
2017-05-05T10:50:46.133Z,1014.13
2017-05-05T10:51:58.666Z,1014.17
2017-05-05T10:53:10.603Z,1014.21
2017-05-05T10:54:22.856Z,1014.19
2017-05-05T10:55:35.375Z,1014.18
2017-05-05T10:56:47.920Z,1014.22
2017-05-05T10:58:00.458Z,1014.18
2017-05-05T10:59:12.670Z,1014.2
2017-05-05T11:00:24.926Z,1014.16
2017-05-05T11:01:37.481Z,1014.17
2017-05-05T11:02:50.024Z,1014.17
2017-05-05T11:04:02.568Z,1014.2
2017-05-05T11:05:15.096Z,1014.23
2017-05-05T11:06:27.037Z,1014.17
2017-05-05T11:07:39.303Z,1014.21
2017-05-05T11:08:51.257Z,1014.18
2017-05-05T11:10:03.475Z,1014.18
2017-05-05T11:11:15.424Z,1014.23
2017-05-05T11:12:27.945Z,1014.23
2017-05-05T11:13:40.444Z,1014.23
2017-05-05T11:14:52.937Z,1014.24
2017-05-05T11:16:05.455Z,1014.23
2017-05-05T11:17:17.675Z,1014.19
2017-05-05T11:18:30.199Z,1014.23
2017-05-05T11:19:42.444Z,1014.2
2017-05-05T11:20:54.362Z,1014.2
2017-05-05T11:22:06.561Z,1014.25
2017-05-05T11:23:19.079Z,1014.26
2017-05-05T11:24:31.353Z,1014.3
2017-05-05T11:25:43.901Z,1014.29
2017-05-05T11:26:56.422Z,1014.31
2017-05-05T11:28:08.941Z,1014.36
2017-05-05T11:29:21.505Z,1014.34
2017-05-05T11:30:33.726Z,1014.31
2017-05-05T11:31:46.279Z,1014.29
2017-05-05T11:32:58.825Z,1014.32
2017-05-05T11:34:11.346Z,1014.32
2017-05-05T11:35:23.591Z,1014.3
2017-05-05T11:36:35.513Z,1014.38
2017-05-05T11:37:47.781Z,1014.37
2017-05-05T11:39:00.009Z,1014.37
2017-05-05T11:40:12.543Z,1014.39
2017-05-05T11:41:24.171Z,1014.37
2017-05-05T11:42:36.119Z,1014.39
2017-05-05T11:43:48.660Z,1014.45
2017-05-05T11:45:00.881Z,1014.47
2017-05-05T11:46:13.433Z,1014.5
2017-05-05T11:47:25.970Z,1014.56
2017-05-05T11:48:37.919Z,1014.53
2017-05-05T11:49:50.444Z,1014.52
2017-05-05T11:51:02.690Z,1014.57
2017-05-05T11:52:14.910Z,1014.56
2017-05-05T11:53:27.170Z,1014.55
2017-05-05T11:54:39.690Z,1014.6
2017-05-05T11:55:51.919Z,1014.61
2017-05-05T11:57:04.149Z,1014.58
2017-05-05T11:58:16.616Z,1014.54
2017-05-05T11:59:29.136Z,1014.57
2017-05-05T12:00:41.673Z,1014.58
2017-05-05T12:01:54.206Z,1014.53
2017-05-05T12:03:06.729Z,1014.57
2017-05-05T12:04:19.286Z,1014.54
2017-05-05T12:05:31.241Z,1014.56
2017-05-05T12:06:43.464Z,1014.51
2017-05-05T12:07:55.999Z,1014.51
2017-05-05T12:09:08.528Z,1014.47
2017-05-05T12:10:20.448Z,1014.47
2017-05-05T12:11:32.987Z,1014.45
2017-05-05T12:12:45.491Z,1014.42
2017-05-05T12:13:57.713Z,1014.39
2017-05-05T12:15:10.275Z,1014.41
2017-05-05T12:16:22.825Z,1014.45
2017-05-05T12:17:35.367Z,1014.47
2017-05-05T12:18:47.912Z,1014.47
2017-05-05T12:20:00.444Z,1014.53
2017-05-05T12:21:12.987Z,1014.52
2017-05-05T12:22:25.247Z,1014.5
2017-05-05T12:23:37.476Z,1014.52
2017-05-05T12:24:50.022Z,1014.53
2017-05-05T12:26:02.573Z,1014.6
2017-05-05T12:27:14.834Z,1014.57
2017-05-05T12:28:27.080Z,1014.58
2017-05-05T12:29:39.605Z,1014.65
2017-05-05T12:30:51.829Z,1014.63
2017-05-05T12:32:04.376Z,1014.7
2017-05-05T12:33:16.945Z,1014.65
2017-05-05T12:34:29.495Z,1014.7
2017-05-05T12:35:42.027Z,1014.72
2017-05-05T12:36:54.555Z,1014.75
2017-05-05T12:38:06.757Z,1014.74
2017-05-05T12:39:19.298Z,1014.71
2017-05-05T12:40:31.542Z,1014.72
2017-05-05T12:41:43.781Z,1014.7
2017-05-05T12:42:56.014Z,1014.69
2017-05-05T12:44:07.952Z,1014.68
2017-05-05T12:45:20.180Z,1014.69
2017-05-05T12:46:32.708Z,1014.69
2017-05-05T12:47:45.244Z,1014.68
2017-05-05T12:48:57.768Z,1014.67
2017-05-05T12:50:10.055Z,1014.68
2017-05-05T12:51:21.987Z,1014.67
2017-05-05T12:52:34.231Z,1014.71
2017-05-05T12:53:46.445Z,1014.69
2017-05-05T12:54:58.944Z,1014.76
2017-05-05T12:56:10.869Z,1014.76
2017-05-05T12:57:23.385Z,1014.77
2017-05-05T12:58:35.915Z,1014.81
2017-05-05T12:59:48.448Z,1014.77
2017-05-05T13:01:00.675Z,1014.77
2017-05-05T13:02:12.877Z,1014.77
2017-05-05T13:03:24.827Z,1014.77
2017-05-05T13:04:37.379Z,1014.74
2017-05-05T13:05:49.907Z,1014.7
2017-05-05T13:07:02.132Z,1014.77
2017-05-05T13:08:14.649Z,1014.73
2017-05-05T13:09:27.191Z,1014.72
2017-05-05T13:10:39.698Z,1014.74
2017-05-05T13:11:52.237Z,1014.72
2017-05-05T13:13:04.754Z,1014.71
2017-05-05T13:14:16.954Z,1014.74
2017-05-05T13:15:29.453Z,1014.71
2017-05-05T13:16:42.016Z,1014.73
2017-05-05T13:17:54.520Z,1014.73
2017-05-05T13:19:07.040Z,1014.77
2017-05-05T13:20:19.586Z,1014.77
2017-05-05T13:21:31.835Z,1014.78
2017-05-05T13:22:44.380Z,1014.75
2017-05-05T13:23:56.588Z,1014.79
2017-05-05T13:25:08.519Z,1014.75
2017-05-05T13:26:20.764Z,1014.78
2017-05-05T13:27:33.285Z,1014.73
2017-05-05T13:28:45.834Z,1014.75
2017-05-05T13:29:58.378Z,1014.74
2017-05-05T13:31:10.621Z,1014.74
2017-05-05T13:32:23.146Z,1014.71
2017-05-05T13:33:35.681Z,1014.68
2017-05-05T13:34:48.213Z,1014.69
2017-05-05T13:36:00.733Z,1014.66
2017-05-05T13:37:12.980Z,1014.71
2017-05-05T13:38:25.226Z,1014.66
2017-05-05T13:39:37.796Z,1014.69
2017-05-05T13:40:50.318Z,1014.67
2017-05-05T13:42:02.854Z,1014.69
2017-05-05T13:43:15.105Z,1014.69
2017-05-05T13:44:27.626Z,1014.64
2017-05-05T13:45:40.177Z,1014.66
2017-05-05T13:46:52.696Z,1014.63
2017-05-05T13:48:05.257Z,1014.65
2017-05-05T13:49:17.519Z,1014.65
2017-05-05T13:50:29.748Z,1014.64
2017-05-05T13:51:42.257Z,1014.62
2017-05-05T13:52:54.773Z,1014.64
2017-05-05T13:54:07.018Z,1014.64
2017-05-05T13:55:18.957Z,1014.64
2017-05-05T13:56:31.481Z,1014.64
2017-05-05T13:57:44.015Z,1014.62
2017-05-05T13:58:56.530Z,1014.63
2017-05-05T14:00:09.051Z,1014.64
2017-05-05T14:01:21.594Z,1014.62
2017-05-05T14:02:34.141Z,1014.61
2017-05-05T14:03:46.368Z,1014.59
2017-05-05T14:04:58.928Z,1014.61
2017-05-05T14:06:10.902Z,1014.62
2017-05-05T14:07:23.449Z,1014.62
2017-05-05T14:08:35.987Z,1014.67
2017-05-05T14:09:48.508Z,1014.66
2017-05-05T14:11:01.015Z,1014.7
2017-05-05T14:12:13.535Z,1014.7
2017-05-05T14:13:26.079Z,1014.66
2017-05-05T14:14:38.007Z,1014.68
2017-05-05T14:15:50.288Z,1014.7
2017-05-05T14:17:02.520Z,1014.7
2017-05-05T14:18:14.772Z,1014.7
2017-05-05T14:19:27.318Z,1014.7
2017-05-05T14:20:39.548Z,1014.73
2017-05-05T14:21:51.795Z,1014.72
2017-05-05T14:23:04.326Z,1014.7
2017-05-05T14:24:16.541Z,1014.77
2017-05-05T14:25:29.096Z,1014.72
2017-05-05T14:26:41.658Z,1014.72
2017-05-05T14:27:54.206Z,1014.68
2017-05-05T14:29:06.154Z,1014.64
2017-05-05T14:30:18.698Z,1014.58
2017-05-05T14:31:31.222Z,1014.61
2017-05-05T14:32:43.158Z,1014.58
2017-05-05T14:33:55.713Z,1014.59
2017-05-05T14:35:07.961Z,1014.62
2017-05-05T14:36:20.531Z,1014.68
2017-05-05T14:37:33.093Z,1014.7
2017-05-05T14:38:45.664Z,1014.7